sensor_id;sensor_type;location;lat;lon;timestamp;P1;durP1;ratioP1;P2;durP2;ratioP2
44730;SDS011;30458;47.448;19.032;2022-08-07T00:09:26;3.38;;;2.38;;
44730;SDS011;30458;47.448;19.032;2022-08-07T00:19:27;2.60;;;2.40;;
44730;SDS011;30458;47.448;19.032;2022-08-07T00:29:33;2.25;;;2.05;;
44730;SDS011;30458;47.448;19.032;2022-08-07T00:39:34;2.60;;;2.35;;
44730;SDS011;30458;47.448;19.032;2022-08-07T00:49:40;2.78;;;2.55;;
44730;SDS011;30458;47.448;19.032;2022-08-07T00:59:41;2.63;;;2.42;;
44730;SDS011;30458;47.448;19.032;2022-08-07T01:09:45;2.40;;;2.20;;
44730;SDS011;30458;47.448;19.032;2022-08-07T01:19:48;2.72;;;2.53;;
44730;SDS011;30458;47.448;19.032;2022-08-07T01:29:55;2.70;;;2.40;;
44730;SDS011;30458;47.448;19.032;2022-08-07T01:39:57;2.95;;;2.75;;
44730;SDS011;30458;47.448;19.032;2022-08-07T01:50:04;2.60;;;2.40;;
44730;SDS011;30458;47.448;19.032;2022-08-07T02:00:07;3.22;;;2.63;;
44730;SDS011;30458;47.448;19.032;2022-08-07T02:10:21;2.53;;;2.33;;
44730;SDS011;30458;47.448;19.032;2022-08-07T02:20:26;3.47;;;3.17;;
44730;SDS011;30458;47.448;19.032;2022-08-07T02:30:34;3.30;;;2.93;;
44730;SDS011;30458;47.448;19.032;2022-08-07T02:40:38;3.03;;;2.72;;
44730;SDS011;30458;47.448;19.032;2022-08-07T02:50:41;3.20;;;3.00;;
44730;SDS011;30458;47.448;19.032;2022-08-07T03:00:47;3.60;;;3.20;;
44730;SDS011;30458;47.448;19.032;2022-08-07T03:10:51;3.95;;;3.65;;
44730;SDS011;30458;47.448;19.032;2022-08-07T03:20:58;4.97;;;3.30;;
44730;SDS011;30458;47.448;19.032;2022-08-07T03:31:04;3.75;;;2.88;;
44730;SDS011;30458;47.448;19.032;2022-08-07T03:41:22;3.55;;;3.25;;
44730;SDS011;30458;47.448;19.032;2022-08-07T03:51:26;3.95;;;2.65;;
44730;SDS011;30458;47.448;19.032;2022-08-07T04:01:32;2.50;;;2.30;;
44730;SDS011;30458;47.448;19.032;2022-08-07T04:11:37;2.50;;;2.30;;
44730;SDS011;30458;47.448;19.032;2022-08-07T04:21:44;2.50;;;2.30;;
44730;SDS011;30458;47.448;19.032;2022-08-07T04:31:45;2.58;;;2.08;;
44730;SDS011;30458;47.448;19.032;2022-08-07T04:41:50;2.10;;;1.90;;
44730;SDS011;30458;47.448;19.032;2022-08-07T04:52:08;2.13;;;1.92;;
44730;SDS011;30458;47.448;19.032;2022-08-07T05:02:34;2.20;;;1.92;;
44730;SDS011;30458;47.448;19.032;2022-08-07T05:12:57;2.38;;;1.67;;
44730;SDS011;30458;47.448;19.032;2022-08-07T05:23:04;3.70;;;1.83;;
44730;SDS011;30458;47.448;19.032;2022-08-07T05:33:12;2.08;;;1.52;;
44730;SDS011;30458;47.448;19.032;2022-08-07T05:43:19;2.33;;;1.38;;
44730;SDS011;30458;47.448;19.032;2022-08-07T05:53:21;2.40;;;1.20;;
44730;SDS011;30458;47.448;19.032;2022-08-07T06:03:22;2.15;;;1.25;;
44730;SDS011;30458;47.448;19.032;2022-08-07T06:13:24;1.30;;;1.05;;
44730;SDS011;30458;47.448;19.032;2022-08-07T06:23:29;1.40;;;1.30;;
44730;SDS011;30458;47.448;19.032;2022-08-07T06:33:31;1.67;;;1.40;;
44730;SDS011;30458;47.448;19.032;2022-08-07T06:43:32;2.03;;;1.30;;
44730;SDS011;30458;47.448;19.032;2022-08-07T06:53:43;1.42;;;1.33;;
44730;SDS011;30458;47.448;19.032;2022-08-07T07:03:49;1.30;;;1.20;;
44730;SDS011;30458;47.448;19.032;2022-08-07T07:13:50;1.52;;;1.42;;
44730;SDS011;30458;47.448;19.032;2022-08-07T07:23:53;1.85;;;1.20;;
44730;SDS011;30458;47.448;19.032;2022-08-07T07:33:55;2.33;;;1.27;;
44730;SDS011;30458;47.448;19.032;2022-08-07T07:44:02;1.77;;;1.50;;
44730;SDS011;30458;47.448;19.032;2022-08-07T07:54:04;1.35;;;1.25;;
44730;SDS011;30458;47.448;19.032;2022-08-07T08:04:09;2.75;;;1.50;;
44730;SDS011;30458;47.448;19.032;2022-08-07T08:14:12;1.45;;;1.33;;
44730;SDS011;30458;47.448;19.032;2022-08-07T08:24:13;2.75;;;1.60;;
44730;SDS011;30458;47.448;19.032;2022-08-07T08:34:41;1.45;;;1.35;;
44730;SDS011;30458;47.448;19.032;2022-08-07T08:44:52;1.58;;;1.25;;
44730;SDS011;30458;47.448;19.032;2022-08-07T08:55:04;2.85;;;1.35;;
44730;SDS011;30458;47.448;19.032;2022-08-07T09:26:17;1.70;;;1.48;;
44730;SDS011;30458;47.448;19.032;2022-08-07T09:36:34;2.05;;;1.70;;
44730;SDS011;30458;47.448;19.032;2022-08-07T09:47:14;3.65;;;1.90;;
44730;SDS011;30458;47.448;19.032;2022-08-07T10:28:11;3.50;;;2.00;;
44730;SDS011;30458;47.448;19.032;2022-08-07T10:38:36;2.67;;;2.00;;
44730;SDS011;30458;47.448;19.032;2022-08-07T11:09:37;2.80;;;2.58;;
44730;SDS011;30458;47.448;19.032;2022-08-07T11:19:47;3.15;;;2.95;;
44730;SDS011;30458;47.448;19.032;2022-08-07T11:30:06;2.87;;;2.67;;
44730;SDS011;30458;47.448;19.032;2022-08-07T11:40:29;3.90;;;2.80;;
44730;SDS011;30458;47.448;19.032;2022-08-07T12:11:33;3.83;;;3.28;;
44730;SDS011;30458;47.448;19.032;2022-08-07T12:42:41;4.38;;;3.40;;
44730;SDS011;30458;47.448;19.032;2022-08-07T13:03:25;3.80;;;3.50;;
44730;SDS011;30458;47.448;19.032;2022-08-07T13:24:07;3.97;;;3.50;;
44730;SDS011;30458;47.448;19.032;2022-08-07T13:34:37;3.63;;;3.22;;
44730;SDS011;30458;47.448;19.032;2022-08-07T13:44:41;3.70;;;3.30;;
44730;SDS011;30458;47.448;19.032;2022-08-07T13:54:46;3.33;;;3.00;;
44730;SDS011;30458;47.448;19.032;2022-08-07T14:04:55;3.08;;;2.78;;
44730;SDS011;30458;47.448;19.032;2022-08-07T14:15:00;4.60;;;3.20;;
44730;SDS011;30458;47.448;19.032;2022-08-07T14:25:07;3.25;;;2.95;;
44730;SDS011;30458;47.448;19.032;2022-08-07T14:35:15;3.50;;;3.20;;
44730;SDS011;30458;47.448;19.032;2022-08-07T14:45:19;3.17;;;2.88;;
44730;SDS011;30458;47.448;19.032;2022-08-07T14:55:21;4.30;;;3.22;;
44730;SDS011;30458;47.448;19.032;2022-08-07T15:05:31;3.10;;;2.90;;
44730;SDS011;30458;47.448;19.032;2022-08-07T15:15:37;3.63;;;3.40;;
44730;SDS011;30458;47.448;19.032;2022-08-07T15:25:52;3.55;;;3.25;;
44730;SDS011;30458;47.448;19.032;2022-08-07T15:35:56;5.28;;;4.00;;
44730;SDS011;30458;47.448;19.032;2022-08-07T15:45:59;3.53;;;3.20;;
44730;SDS011;30458;47.448;19.032;2022-08-07T15:56:18;5.53;;;5.03;;
44730;SDS011;30458;47.448;19.032;2022-08-07T16:06:28;4.50;;;4.20;;
44730;SDS011;30458;47.448;19.032;2022-08-07T16:26:58;4.03;;;3.72;;
44730;SDS011;30458;47.448;19.032;2022-08-07T16:37:12;4.20;;;3.80;;
44730;SDS011;30458;47.448;19.032;2022-08-07T16:57:51;3.65;;;3.35;;
44730;SDS011;30458;47.448;19.032;2022-08-07T17:07:54;3.58;;;3.25;;
44730;SDS011;30458;47.448;19.032;2022-08-07T17:18:01;3.40;;;3.13;;
44730;SDS011;30458;47.448;19.032;2022-08-07T17:28:15;3.03;;;2.78;;
44730;SDS011;30458;47.448;19.032;2022-08-07T17:38:38;3.13;;;2.83;;
44730;SDS011;30458;47.448;19.032;2022-08-07T17:59:49;2.63;;;2.42;;
44730;SDS011;30458;47.448;19.032;2022-08-07T18:09:59;4.07;;;2.50;;
44730;SDS011;30458;47.448;19.032;2022-08-07T18:20:13;2.80;;;2.50;;
44730;SDS011;30458;47.448;19.032;2022-08-07T18:30:32;3.58;;;2.80;;
44730;SDS011;30458;47.448;19.032;2022-08-07T18:51:05;2.83;;;2.33;;
44730;SDS011;30458;47.448;19.032;2022-08-07T19:01:29;3.75;;;1.98;;
44730;SDS011;30458;47.448;19.032;2022-08-07T19:31:58;2.83;;;1.80;;
44730;SDS011;30458;47.448;19.032;2022-08-07T19:42:06;3.88;;;1.80;;
44730;SDS011;30458;47.448;19.032;2022-08-07T19:52:13;2.47;;;1.63;;
44730;SDS011;30458;47.448;19.032;2022-08-07T20:02:22;1.92;;;1.35;;
44730;SDS011;30458;47.448;19.032;2022-08-07T20:12:28;2.05;;;1.48;;
44730;SDS011;30458;47.448;19.032;2022-08-07T20:22:30;2.60;;;1.45;;
44730;SDS011;30458;47.448;19.032;2022-08-07T20:32:36;1.60;;;1.40;;
44730;SDS011;30458;47.448;19.032;2022-08-07T20:42:42;3.95;;;1.55;;
44730;SDS011;30458;47.448;19.032;2022-08-07T20:52:46;1.80;;;1.40;;
44730;SDS011;30458;47.448;19.032;2022-08-07T21:02:51;2.47;;;1.40;;
44730;SDS011;30458;47.448;19.032;2022-08-07T21:13:04;2.42;;;1.50;;
44730;SDS011;30458;47.448;19.032;2022-08-07T21:23:20;1.97;;;1.37;;
44730;SDS011;30458;47.448;19.032;2022-08-07T21:33:32;2.47;;;1.40;;
44730;SDS011;30458;47.448;19.032;2022-08-07T21:44:09;1.85;;;1.20;;
44730;SDS011;30458;47.448;19.032;2022-08-07T21:54:43;2.55;;;1.33;;
44730;SDS011;30458;47.448;19.032;2022-08-07T22:04:54;3.60;;;1.30;;
44730;SDS011;30458;47.448;19.032;2022-08-07T22:15:06;2.78;;;1.40;;
44730;SDS011;30458;47.448;19.032;2022-08-07T22:25:31;2.10;;;1.20;;
44730;SDS011;30458;47.448;19.032;2022-08-07T22:35:49;1.40;;;1.30;;
44730;SDS011;30458;47.448;19.032;2022-08-07T22:56:46;2.47;;;1.40;;
44730;SDS011;30458;47.448;19.032;2022-08-07T23:27:54;3.95;;;1.30;;
44730;SDS011;30458;47.448;19.032;2022-08-07T23:48:52;1.95;;;1.38;;
